Xin Dan Dong — BPBY — position and weather

sailwx.info

Track history (hours):
 
Tides and Currents Weather Stations Pressure Air Temp Water Temp Dewpoint Dewpoint Depression Visibility Wind Speed Wind Dir Waves Ship Positions

Xin Dan Dong

Last reported at 2016-Jun-30 13:27 UTC. Time now 2016-Jun-30 13:57 UTC.
Position N 21°57' E 114°01'.

Length 263 m; draft 12.8 m.

Type: Cargo ship. MMSI: 413153000.

Date/timePositionNaut miles runAvg speedWind from/ knotsBaromVisibWave heightAir tempDewpointWater temp
2016-Jun-30 13:27N 21°57' E 114°01'0 0.0
2016-Jun-30 12:33N 21°57' E 114°01'0 0.0
2016-Jun-30 11:33N 21°57' E 114°01'0 0.0
2016-Jun-30 10:33N 21°57' E 114°01'0 0.0
2016-Jun-30 09:21N 21°57' E 114°01'0 0.0
2016-Jun-30 08:21N 21°57' E 114°01'0 0.0
2016-Jun-30 07:30N 21°57' E 114°01'0 0.0
2016-Jun-30 06:33N 21°57' E 114°01'0 0.0
2016-Jun-30 01:12N 21°57' E 114°01'0 0.0
2016-Jun-30 00:18N 21°57' E 114°01'0 0.0
2016-Jun-29 23:33N 21°57' E 114°01'0 0.0
2016-Jun-29 22:33N 21°58' E 114°01'0 0.0
2016-Jun-29 15:15N 21°57' E 114°01'19 9.3
2016-Jun-29 13:13N 21°59' E 114°21'21811.4
2016-Jun-28 18:10N 23°30' E 117°56'2011.8
2016-Jun-28 16:28N 23°43' E 118°12'1111.8
2016-Jun-28 15:32N 23°52' E 118°20'1212.6
2016-Jun-28 14:33N 24°04' E 118°19'1312.8
2016-Jun-28 13:33N 24°16' E 118°14'1211.8
2016-Jun-28 12:34N 24°25' E 118°05'1 1.4
2016-Jun-28 11:32N 24°25' E 118°04'0 0.0
2016-Jun-28 10:32N 24°25' E 118°04'0 0.0
2016-Jun-28 09:32N 24°25' E 118°04'0 0.0
2016-Jun-28 08:32N 24°25' E 118°04'0 0.0
2016-Jun-28 07:32N 24°25' E 118°04'0 0.0
2016-Jun-28 06:32N 24°25' E 118°04'0 0.0
2016-Jun-28 04:32N 24°25' E 118°04'0 0.0
2016-Jun-28 03:32N 24°25' E 118°04'0 0.0
2016-Jun-28 02:29N 24°25' E 118°04'0 0.0
2016-Jun-28 01:32N 24°25' E 118°04'0 0.0
2016-Jun-28 00:32N 24°25' E 118°04'0 0.1
2016-Jun-27 23:34N 24°25' E 118°04'6 6.0
2016-Jun-27 22:34N 24°21' E 118°09'7 7.3
2016-Jun-27 21:33N 24°16' E 118°14'10 9.5
2016-Jun-27 20:33N 24°12' E 118°24'1312.3
2016-Jun-27 19:30N 24°17' E 118°37'2914.1
2016-Jun-27 17:27N 24°29' E 119°07'1213.8
2016-Jun-27 16:33N 24°37' E 119°17'4013.2
2016-Jun-27 13:33N 25°04' E 119°49'57011.8
2016-Jun-25 13:21N 34°05' E 123°14'2312.8
2016-Jun-25 11:33N 34°28' E 123°14'1312.7
2016-Jun-25 10:33N 34°41' E 123°14'1312.5
2016-Jun-25 09:33N 34°53' E 123°14'1712.5
2016-Jun-25 08:11N 35°10' E 123°14'812.4
2016-Jun-25 07:31N 35°18' E 123°14'1716.2
2016-Jun-25 06:29N 35°35' E 123°14'1515.3
2016-Jun-25 05:31N 35°50' E 123°14'1313.1
2016-Jun-25 04:33N 36°03' E 123°14'1413.2
2016-Jun-25 03:30N 36°17' E 123°14'1212.9
2016-Jun-25 02:34N 36°29' E 123°14'2512.4
2016-Jun-25 00:33N 36°54' E 123°14'1312.0
2016-Jun-24 23:27N 37°07' E 123°14'1112.2
2016-Jun-24 22:33N 37°18' E 123°14'1211.8
2016-Jun-24 21:32N 37°30' E 123°11'1313.6
2016-Jun-24 20:33N 37°36' E 122°57'1514.5
2016-Jun-24 19:33N 37°43' E 122°41'1514.5
2016-Jun-24 18:30N 37°51' E 122°24'1713.8
2016-Jun-24 17:17N 37°60' E 122°06'1013.5
2016-Jun-24 16:33N 38°05' E 121°55'1313.5
2016-Jun-24 15:33N 38°12' E 121°40'1413.6
2016-Jun-24 14:33N 38°19' E 121°26'1414.0
2016-Jun-24 13:34N 38°26' E 121°10'1413.9
2016-Jun-24 12:33N 38°33' E 120°55'1110.9
2016-Jun-24 11:33N 38°43' E 120°48'1312.7
2016-Jun-24 10:33N 38°55' E 120°48'1211.9
2016-Jun-24 09:33N 39°07' E 120°48'1111.0
2016-Jun-24 08:31N 39°19' E 120°48'1010.6
2016-Jun-24 07:33N 39°29' E 120°48'1410.9
2016-Jun-24 06:18N 39°40' E 120°59'60 1.7
2016-Jun-22 18:33N 40°18' E 121°59'6 5.1
2016-Jun-22 17:28N 40°16' E 122°06'0 0.0
2016-Jun-22 06:16N 40°16' E 122°06'0 0.0
2016-Jun-22 04:28N 40°16' E 122°06'0 0.0
2016-Jun-22 02:30N 40°16' E 122°06'4 3.8
2016-Jun-22 01:30N 40°18' E 122°01'114 8.0
2016-Jun-21 11:11N 38°32' E 121°06'1112.7
2016-Jun-21 10:20N 38°26' E 121°18'5613.7
2016-Jun-21 06:16N 37°57' E 122°19'2213.1
2016-Jun-21 04:33N 37°47' E 122°44'1312.4
2016-Jun-21 03:31N 37°40' E 122°58'1312.5
2016-Jun-21 02:29N 37°33' E 123°12'1212.0
2016-Jun-21 01:28N 37°21' E 123°14'1213.6
2016-Jun-21 00:33N 37°09' E 123°14'1714.1
2016-Jun-20 23:20N 36°52' E 123°14'1214.1
2016-Jun-20 22:28N 36°39' E 123°14'1314.3
2016-Jun-20 21:33N 36°26' E 123°14'4414.1
2016-Jun-20 18:26N 35°42' E 123°14'4214.1
2016-Jun-20 15:29N 35°01' E 123°14'  
Track history (hours):
 
Tides and Currents Weather Stations Pressure Air Temp Water Temp Dewpoint Dewpoint Depression Visibility Wind Speed Wind Dir Waves Ship Positions

Xin Dan Dong

Last reported at 2016-Jun-30 13:27 UTC. Time now 2016-Jun-30 13:57 UTC.
Position N 21°57' E 114°01'.

Length 263 m; draft 12.8 m.

Type: Cargo ship. MMSI: 413153000.

Date/timePositionNaut miles runAvg speedWind from/ knotsBaromVisibWave heightAir tempDewpointWater temp
2016-Jun-30 13:27N 21°57' E 114°01'0 0.0
2016-Jun-30 12:33N 21°57' E 114°01'0 0.0
2016-Jun-30 11:33N 21°57' E 114°01'0 0.0
2016-Jun-30 10:33N 21°57' E 114°01'0 0.0
2016-Jun-30 09:21N 21°57' E 114°01'0 0.0
2016-Jun-30 08:21N 21°57' E 114°01'0 0.0
2016-Jun-30 07:30N 21°57' E 114°01'0 0.0
2016-Jun-30 06:33N 21°57' E 114°01'0 0.0
2016-Jun-30 01:12N 21°57' E 114°01'0 0.0
2016-Jun-30 00:18N 21°57' E 114°01'0 0.0
2016-Jun-29 23:33N 21°57' E 114°01'0 0.0
2016-Jun-29 22:33N 21°58' E 114°01'0 0.0
2016-Jun-29 15:15N 21°57' E 114°01'19 9.3
2016-Jun-29 13:13N 21°59' E 114°21'21811.4
2016-Jun-28 18:10N 23°30' E 117°56'2011.8
2016-Jun-28 16:28N 23°43' E 118°12'1111.8
2016-Jun-28 15:32N 23°52' E 118°20'1212.6
2016-Jun-28 14:33N 24°04' E 118°19'1312.8
2016-Jun-28 13:33N 24°16' E 118°14'1211.8
2016-Jun-28 12:34N 24°25' E 118°05'1 1.4
2016-Jun-28 11:32N 24°25' E 118°04'0 0.0
2016-Jun-28 10:32N 24°25' E 118°04'0 0.0
2016-Jun-28 09:32N 24°25' E 118°04'0 0.0
2016-Jun-28 08:32N 24°25' E 118°04'0 0.0
2016-Jun-28 07:32N 24°25' E 118°04'0 0.0
2016-Jun-28 06:32N 24°25' E 118°04'0 0.0
2016-Jun-28 04:32N 24°25' E 118°04'0 0.0
2016-Jun-28 03:32N 24°25' E 118°04'0 0.0
2016-Jun-28 02:29N 24°25' E 118°04'0 0.0
2016-Jun-28 01:32N 24°25' E 118°04'0 0.0
2016-Jun-28 00:32N 24°25' E 118°04'0 0.1
2016-Jun-27 23:34N 24°25' E 118°04'6 6.0
2016-Jun-27 22:34N 24°21' E 118°09'7 7.3
2016-Jun-27 21:33N 24°16' E 118°14'10 9.5
2016-Jun-27 20:33N 24°12' E 118°24'1312.3
2016-Jun-27 19:30N 24°17' E 118°37'2914.1
2016-Jun-27 17:27N 24°29' E 119°07'1213.8
2016-Jun-27 16:33N 24°37' E 119°17'4013.2
2016-Jun-27 13:33N 25°04' E 119°49'57011.8
2016-Jun-25 13:21N 34°05' E 123°14'2312.8
2016-Jun-25 11:33N 34°28' E 123°14'1312.7
2016-Jun-25 10:33N 34°41' E 123°14'1312.5
2016-Jun-25 09:33N 34°53' E 123°14'1712.5
2016-Jun-25 08:11N 35°10' E 123°14'812.4
2016-Jun-25 07:31N 35°18' E 123°14'1716.2
2016-Jun-25 06:29N 35°35' E 123°14'1515.3
2016-Jun-25 05:31N 35°50' E 123°14'1313.1
2016-Jun-25 04:33N 36°03' E 123°14'1413.2
2016-Jun-25 03:30N 36°17' E 123°14'1212.9
2016-Jun-25 02:34N 36°29' E 123°14'2512.4
2016-Jun-25 00:33N 36°54' E 123°14'1312.0
2016-Jun-24 23:27N 37°07' E 123°14'1112.2
2016-Jun-24 22:33N 37°18' E 123°14'1211.8
2016-Jun-24 21:32N 37°30' E 123°11'1313.6
2016-Jun-24 20:33N 37°36' E 122°57'1514.5
2016-Jun-24 19:33N 37°43' E 122°41'1514.5
2016-Jun-24 18:30N 37°51' E 122°24'1713.8
2016-Jun-24 17:17N 37°60' E 122°06'1013.5
2016-Jun-24 16:33N 38°05' E 121°55'1313.5
2016-Jun-24 15:33N 38°12' E 121°40'1413.6
2016-Jun-24 14:33N 38°19' E 121°26'1414.0
2016-Jun-24 13:34N 38°26' E 121°10'1413.9
2016-Jun-24 12:33N 38°33' E 120°55'1110.9
2016-Jun-24 11:33N 38°43' E 120°48'1312.7
2016-Jun-24 10:33N 38°55' E 120°48'1211.9
2016-Jun-24 09:33N 39°07' E 120°48'1111.0
2016-Jun-24 08:31N 39°19' E 120°48'1010.6
2016-Jun-24 07:33N 39°29' E 120°48'1410.9
2016-Jun-24 06:18N 39°40' E 120°59'60 1.7
2016-Jun-22 18:33N 40°18' E 121°59'6 5.1
2016-Jun-22 17:28N 40°16' E 122°06'0 0.0
2016-Jun-22 06:16N 40°16' E 122°06'0 0.0
2016-Jun-22 04:28N 40°16' E 122°06'0 0.0
2016-Jun-22 02:30N 40°16' E 122°06'4 3.8
2016-Jun-22 01:30N 40°18' E 122°01'114 8.0
2016-Jun-21 11:11N 38°32' E 121°06'1112.7
2016-Jun-21 10:20N 38°26' E 121°18'5613.7
2016-Jun-21 06:16N 37°57' E 122°19'2213.1
2016-Jun-21 04:33N 37°47' E 122°44'1312.4
2016-Jun-21 03:31N 37°40' E 122°58'1312.5
2016-Jun-21 02:29N 37°33' E 123°12'1212.0
2016-Jun-21 01:28N 37°21' E 123°14'1213.6
2016-Jun-21 00:33N 37°09' E 123°14'1714.1
2016-Jun-20 23:20N 36°52' E 123°14'1214.1
2016-Jun-20 22:28N 36°39' E 123°14'1314.3
2016-Jun-20 21:33N 36°26' E 123°14'4414.1
2016-Jun-20 18:26N 35°42' E 123°14'4214.1
2016-Jun-20 15:29N 35°01' E 123°14'  

Dump ship's entire track history